createdAt,value
2022-10-22T00:10:19.471Z,12.66
2022-10-22T00:15:23.810Z,12.68
2022-10-22T00:20:26.521Z,12.65
2022-10-22T00:25:29.330Z,12.65
2022-10-22T00:30:33.499Z,12.63
2022-10-22T00:35:36.229Z,12.61
2022-10-22T00:40:38.921Z,12.58
2022-10-22T00:45:43.390Z,12.56
2022-10-22T00:50:49.194Z,12.55
2022-10-22T00:55:54.683Z,12.55
2022-10-22T01:00:59.277Z,12.58
2022-10-22T01:06:06.044Z,12.59
2022-10-22T01:11:16.589Z,12.62
2022-10-22T01:16:27.528Z,12.64
2022-10-22T01:21:35.470Z,12.60
2022-10-22T01:26:51.058Z,12.59
2022-10-22T01:32:00.254Z,12.61
2022-10-22T01:37:04.555Z,12.63
2022-10-22T01:42:07.719Z,12.61
2022-10-22T01:47:22.696Z,12.73
2022-10-22T01:52:35.549Z,12.74
2022-10-22T01:57:45.265Z,12.79
2022-10-22T02:03:01.371Z,12.84
2022-10-22T02:08:09.218Z,12.86
2022-10-22T02:13:17.175Z,12.89
2022-10-22T02:18:25.150Z,12.93
2022-10-22T02:23:28.675Z,12.97
2022-10-22T02:28:38.266Z,13.05
2022-10-22T02:33:46.431Z,13.09
2022-10-22T02:38:52.399Z,13.11
2022-10-22T02:43:56.611Z,13.14
2022-10-22T02:49:00.682Z,13.19
2022-10-22T02:54:03.443Z,13.21
2022-10-22T02:59:06.603Z,13.23
2022-10-22T03:04:11.618Z,13.26
2022-10-22T03:09:14.539Z,13.30
2022-10-22T03:14:17.757Z,13.30
2022-10-22T03:19:21.979Z,13.32
2022-10-22T03:24:30.037Z,13.34
2022-10-22T03:29:36.231Z,13.34
2022-10-22T03:34:40.396Z,13.32
2022-10-22T03:39:43.287Z,13.30
2022-10-22T03:44:46.032Z,13.25
2022-10-22T03:49:50.174Z,13.23
2022-10-22T03:54:53.663Z,13.23
2022-10-22T03:59:56.664Z,13.23
2022-10-22T04:05:00.998Z,13.24
2022-10-22T04:10:04.301Z,13.25
2022-10-22T04:15:08.253Z,13.26
2022-10-22T04:20:12.803Z,13.28
2022-10-22T04:25:15.528Z,13.28
2022-10-22T04:30:18.295Z,13.26
2022-10-22T04:35:22.485Z,13.25
2022-10-22T04:40:25.320Z,13.23
2022-10-22T04:45:28.051Z,13.20
2022-10-22T04:50:32.711Z,13.20
2022-10-22T04:55:35.465Z,13.19
2022-10-22T05:00:38.249Z,13.21
2022-10-22T05:05:42.341Z,13.21
2022-10-22T05:10:45.207Z,13.21
2022-10-22T05:15:48.290Z,13.22
2022-10-22T05:20:52.491Z,13.23
2022-10-22T05:25:55.182Z,13.26
2022-10-22T05:30:59.566Z,13.27
2022-10-22T05:36:05.510Z,13.25
2022-10-22T05:41:11.133Z,13.16
2022-10-22T05:46:21.278Z,13.10
2022-10-22T05:51:27.713Z,13.07
2022-10-22T05:56:32.534Z,13.07
2022-10-22T06:01:36.292Z,13.09
2022-10-22T06:06:43.792Z,13.12
2022-10-22T06:11:47.709Z,13.16
2022-10-22T06:16:51.269Z,13.20
2022-10-22T06:21:55.337Z,13.23
2022-10-22T06:26:58.377Z,13.26
2022-10-22T06:32:01.087Z,13.30
2022-10-22T06:37:05.227Z,13.37
2022-10-22T06:42:08.217Z,13.47
2022-10-22T06:47:11.018Z,13.59
2022-10-22T06:52:15.751Z,13.81
2022-10-22T06:57:18.537Z,13.81
2022-10-22T07:02:21.527Z,13.85
2022-10-22T07:07:25.795Z,13.92
2022-10-22T07:12:29.438Z,14.06
2022-10-22T07:17:32.158Z,14.10
2022-10-22T07:22:36.845Z,14.14
2022-10-22T07:27:39.841Z,14.18
2022-10-22T07:32:42.793Z,14.18
2022-10-22T07:37:46.995Z,14.40
2022-10-22T07:42:49.749Z,14.59
2022-10-22T07:47:53.869Z,14.74
2022-10-22T07:52:58.474Z,15.13
2022-10-22T07:58:01.523Z,15.35
2022-10-22T08:03:04.461Z,15.58
2022-10-22T08:08:08.607Z,15.95
2022-10-22T08:13:12.317Z,15.77
2022-10-22T08:18:15.428Z,16.18
2022-10-22T08:23:22.079Z,16.18
2022-10-22T08:28:29.934Z,16.12
2022-10-22T08:33:32.893Z,15.91
2022-10-22T08:38:37.050Z,16.14
2022-10-22T08:44:15.317Z,16.13
2022-10-22T08:49:21.875Z,16.28
2022-10-22T08:54:34.516Z,16.65
2022-10-22T08:59:45.549Z,16.65
2022-10-22T09:04:55.775Z,16.56
2022-10-22T09:10:01.540Z,16.67
2022-10-22T09:15:05.065Z,17.01
2022-10-22T09:20:15.857Z,17.07
2022-10-22T09:25:23.881Z,16.90
2022-10-22T09:30:28.520Z,17.15
2022-10-22T09:35:35.646Z,17.11
2022-10-22T09:40:47.549Z,17.41
2022-10-22T09:45:57.955Z,17.68
2022-10-22T09:51:07.215Z,17.63
2022-10-22T09:56:19.955Z,17.10
2022-10-22T10:01:25.935Z,17.24
2022-10-22T10:06:34.328Z,17.27
2022-10-22T10:11:44.467Z,17.28
2022-10-22T10:16:59.001Z,17.29
2022-10-22T10:22:12.046Z,17.29
2022-10-22T10:27:23.981Z,17.40
2022-10-22T10:32:41.912Z,17.27
2022-10-22T10:37:51.198Z,17.44
2022-10-22T10:43:01.245Z,17.13
2022-10-22T10:48:34.141Z,17.17
2022-10-22T10:53:53.340Z,16.87
2022-10-22T10:59:08.372Z,16.86
2022-10-22T11:04:27.722Z,16.83
2022-10-22T11:09:37.558Z,16.76
2022-10-22T11:14:52.026Z,16.85
2022-10-22T11:20:01.848Z,16.86
2022-10-22T11:25:15.199Z,16.88
2022-10-22T11:30:21.680Z,16.77
2022-10-22T11:35:28.073Z,16.76
2022-10-22T11:40:35.944Z,16.80
2022-10-22T11:45:43.055Z,17.09
2022-10-22T11:50:50.799Z,17.82
2022-10-22T11:55:58.062Z,19.09
2022-10-22T12:06:29.755Z,18.91
2022-10-22T12:11:39.429Z,19.09
2022-10-22T12:17:01.719Z,18.88
2022-10-22T12:22:17.957Z,18.53
2022-10-22T12:27:23.187Z,18.37
2022-10-22T12:32:35.163Z,18.03
2022-10-22T12:37:40.108Z,17.98
2022-10-22T12:42:48.990Z,17.73
2022-10-22T12:47:56.580Z,17.64
2022-10-22T12:53:01.169Z,17.59
2022-10-22T12:58:07.236Z,18.03
2022-10-22T13:03:26.552Z,18.40
2022-10-22T13:08:35.552Z,18.67
2022-10-22T13:13:45.635Z,18.13
2022-10-22T13:18:50.583Z,18.01
2022-10-22T13:23:57.797Z,17.82
2022-10-22T13:29:02.183Z,18.01
2022-10-22T13:34:11.710Z,17.97
2022-10-22T13:39:19.857Z,17.96
2022-10-22T13:44:22.595Z,18.20
2022-10-22T13:49:25.337Z,18.15
2022-10-22T13:54:30.217Z,18.33
2022-10-22T13:59:32.920Z,18.03
2022-10-22T14:04:40.621Z,18.05
2022-10-22T14:09:45.087Z,17.94
2022-10-22T14:14:47.850Z,17.80
2022-10-22T14:19:50.725Z,17.91
2022-10-22T14:24:55.255Z,17.77
2022-10-22T14:29:59.596Z,17.64
2022-10-22T14:35:02.666Z,17.71
2022-10-22T14:40:11.987Z,17.79
2022-10-22T14:45:18.461Z,18.12
2022-10-22T14:50:21.309Z,17.83
2022-10-22T14:55:27.128Z,17.78
2022-10-22T15:00:29.899Z,17.82
2022-10-22T15:05:32.631Z,17.82
2022-10-22T15:10:36.768Z,17.92
2022-10-22T15:15:41.260Z,17.85
2022-10-22T15:20:44.058Z,17.81
2022-10-22T15:25:48.119Z,17.84
2022-10-22T15:30:59.340Z,17.69
2022-10-22T15:36:10.934Z,17.44
2022-10-22T15:41:15.104Z,17.19
2022-10-22T15:46:19.453Z,16.95
2022-10-22T15:51:22.429Z,16.80
2022-10-22T15:56:28.221Z,16.66
2022-10-22T16:01:31.876Z,16.49
2022-10-22T16:06:36.520Z,16.26
2022-10-22T16:11:41.507Z,16.09
2022-10-22T16:16:46.481Z,15.95
2022-10-22T16:21:51.466Z,15.72
2022-10-22T16:26:55.784Z,15.46
2022-10-22T16:31:58.513Z,15.22
2022-10-22T16:37:01.246Z,15.01
2022-10-22T16:42:05.442Z,14.78
2022-10-22T16:47:08.147Z,14.58
2022-10-22T16:52:11.095Z,14.36
2022-10-22T16:57:15.195Z,14.15
2022-10-22T17:02:17.890Z,14.06
2022-10-22T17:07:23.659Z,13.91
2022-10-22T17:12:27.798Z,13.74
2022-10-22T17:17:30.525Z,13.65
2022-10-22T17:22:33.775Z,13.52
2022-10-22T17:27:38.992Z,13.40
2022-10-22T17:32:41.920Z,13.28
2022-10-22T17:37:44.869Z,13.18
2022-10-22T17:42:49.430Z,13.06
2022-10-22T17:47:52.981Z,12.92
2022-10-22T17:52:55.689Z,12.80
2022-10-22T17:57:59.822Z,12.72
2022-10-22T18:03:02.539Z,12.67
2022-10-22T18:08:07.780Z,12.53
2022-10-22T18:13:13.963Z,12.45
2022-10-22T18:23:45.048Z,12.24
2022-10-22T18:28:49.893Z,12.16
2022-10-22T18:38:58.390Z,11.94
2022-10-22T18:44:04.911Z,11.89
2022-10-22T18:49:08.029Z,11.76
2022-10-22T18:54:22.542Z,11.69
2022-10-22T18:59:28.358Z,11.67
2022-10-22T19:04:36.544Z,11.61
2022-10-22T19:09:40.529Z,11.58
2022-10-22T19:15:11.218Z,11.48
2022-10-22T19:20:14.271Z,11.41
2022-10-22T19:25:17.135Z,11.31
2022-10-22T19:30:24.061Z,11.28
2022-10-22T19:35:27.160Z,11.20
2022-10-22T19:40:55.281Z,11.12
2022-10-22T19:45:59.475Z,11.05
2022-10-22T19:51:04.279Z,10.98
2022-10-22T19:56:09.658Z,10.93
2022-10-22T20:01:16.054Z,10.91
2022-10-22T20:11:46.505Z,10.80
2022-10-22T20:16:50.686Z,10.78
2022-10-22T20:21:53.491Z,10.74
2022-10-22T20:26:56.337Z,10.69
2022-10-22T20:32:02.316Z,10.66
2022-10-22T20:37:07.043Z,10.63
2022-10-22T20:42:09.967Z,10.62
2022-10-22T20:52:41.443Z,10.62
2022-10-22T20:57:44.489Z,10.60
2022-10-22T21:02:48.823Z,10.57
2022-10-22T21:07:51.531Z,10.58
2022-10-22T21:12:54.336Z,10.58
2022-10-22T21:17:58.465Z,10.56
2022-10-22T21:23:01.212Z,10.56
2022-10-22T21:28:04.027Z,10.54
2022-10-22T21:33:08.162Z,10.50
2022-10-22T21:38:11.010Z,10.49
2022-10-22T21:43:13.849Z,10.42
2022-10-22T21:48:18.042Z,10.39
2022-10-22T21:53:20.737Z,10.33
2022-10-22T21:58:24.018Z,10.29
2022-10-22T22:03:29.104Z,10.29
2022-10-22T22:08:33.579Z,10.24
2022-10-22T22:13:36.582Z,10.21
2022-10-22T22:18:42.043Z,10.14
2022-10-22T22:23:46.531Z,10.05
2022-10-22T22:28:49.395Z,10.00
2022-10-22T22:34:00.167Z,9.97
2022-10-22T22:39:04.654Z,9.92
2022-10-22T22:44:07.418Z,9.85
2022-10-22T22:49:11.590Z,9.78
2022-10-22T22:54:14.546Z,9.70
2022-10-22T22:59:17.263Z,9.61
2022-10-22T23:04:23.775Z,9.56
2022-10-22T23:09:26.711Z,9.50
2022-10-22T23:14:29.523Z,9.46
2022-10-22T23:19:33.621Z,9.45
2022-10-22T23:24:36.912Z,9.39
2022-10-22T23:29:44.391Z,9.34
2022-10-22T23:34:49.109Z,9.24
2022-10-22T23:39:51.812Z,9.17
2022-10-22T23:44:54.847Z,9.13
2022-10-22T23:49:58.943Z,9.12
2022-10-22T23:55:01.663Z,9.06
